Cruise inventory

FRV Scotia 1090S

Cruise summary report

Cruise Info. 
Ship name (ship code)FRV Scotia (749S)
Cruise identifier1090S
Cruise period1990-09-15 — 1990-10-05
StatusCompleted
Port of departureFraserburgh, United Kingdom
Port of returnAberdeen, United Kingdom
Objectives(1) To recover 4 current meter moorings previously deployed during Scotia Part 1.
(2) To perform repeated surveys of set section using the vessel mounted ADCP.
(3) To carry out a hydrographic survey along the standard sections.
(4) To perform a hydrographic survey of the northern North Sea and shelf seas west of Orkney in order to examine northerly inflows of Atlantic water.
Chief scientistBill Turrell (Scottish Office Agriculture and Fisheries Department Aberdeen Marine Laboratory)
Cruise reportFRV Scotia 1090S cruise report sc10_90.pdf — access key 'C' (0.17 MB) 
Ocean/sea areas 
GeneralNorth Sea
Norwegian Sea
SpecificFaroe-Shetland Channel, east of Shetland and around Fair Isle / Orkney-Shetland area
Track chartsFRV Scotia 1090S cruise track — sc10_90track.pdf (0.06 MB) 
Measurements 
Physical oceanography 
CTD stationsQuantity: number of stations = 140
Chemical oceanography 
PhosphateQuantity: number of samples = 12
NitrateQuantity: number of samples = 12
SilicateQuantity: number of samples = 34
Data held at BODC 
Series/Profiles 
121  CTD/STD cast
Density of the water column
Electrical conductivity of the water column
Vertical spatial coordinates
Salinity of the water column
Temperature of the water column
Density of the water column
Electrical conductivity of the water column
Vertical spatial coordinates
Salinity of the water column
Temperature of the water column

BODC idDate/TimeLocationDoc.
4102201990-09-15 20:27 57° 47' 59" N  1° 59' 48" W  View metadata report for BODC series reference number 410220
4102321990-09-15 22:14 57° 52' 55" N  1° 44' 58" W  View metadata report for BODC series reference number 410232
4102441990-09-15 23:16 57° 57' 49" N  1° 29' 27" W  View metadata report for BODC series reference number 410244
4102561990-09-16 00:24 58° 2' 57" N  1° 14' 50" W  View metadata report for BODC series reference number 410256
4102681990-09-16 01:28 58° 7' 55" N  1° 0' 6" W  View metadata report for BODC series reference number 410268
4102811990-09-16 02:34 58° 12' 59" N  0° 45' 8" W  View metadata report for BODC series reference number 410281
4102931990-09-16 03:49 58° 17' 58" N  0° 30' 0" W  View metadata report for BODC series reference number 410293
4103001990-09-16 04:42 58° 22' 58" N  0° 15' 6" W  View metadata report for BODC series reference number 410300
4103121990-09-16 05:51 58° 27' 58" N  0° 0' 2" E  View metadata report for BODC series reference number 410312
4103241990-09-16 07:01 58° 32' 58" N  0° 15' 6" E  View metadata report for BODC series reference number 410324
4103361990-09-16 07:56 58° 37' 59" N  0° 29' 57" E  View metadata report for BODC series reference number 410336
4103481990-09-16 09:00 58° 42' 58" N  0° 45' 1" E  View metadata report for BODC series reference number 410348
4103611990-09-16 10:06 58° 48' 2" N  0° 59' 55" E  View metadata report for BODC series reference number 410361
4103731990-09-16 11:19 58° 52' 52" N  1° 15' 2" E  View metadata report for BODC series reference number 410373
4103851990-09-16 12:40 58° 57' 52" N  1° 30' 0" E  View metadata report for BODC series reference number 410385
4103971990-09-16 14:40 59° 16' 56" N  1° 20' 13" E  View metadata report for BODC series reference number 410397
4104041990-09-16 17:31 59° 17' 2" N  0° 40' 7" E  View metadata report for BODC series reference number 410404
4104161990-09-16 20:09 59° 16' 57" N  0° 0' 15" E  View metadata report for BODC series reference number 410416
4104281990-09-16 22:10 59° 16' 58" N  0° 19' 50" W  View metadata report for BODC series reference number 410428
4104411990-09-16 23:47 59° 16' 46" N  0° 39' 43" W  View metadata report for BODC series reference number 410441
4104531990-09-17 01:26 59° 16' 59" N  0° 59' 44" W  View metadata report for BODC series reference number 410453
4104651990-09-17 02:25 59° 17' 2" N  1° 9' 45" W  View metadata report for BODC series reference number 410465
4104771990-09-17 03:29 59° 17' 1" N  1° 19' 57" W  View metadata report for BODC series reference number 410477
4104891990-09-17 04:42 59° 17' 1" N  1° 29' 58" W  View metadata report for BODC series reference number 410489
4104901990-09-17 05:50 59° 16' 59" N  1° 39' 52" W  View metadata report for BODC series reference number 410490
4105081990-09-17 06:53 59° 16' 51" N  1° 47' 37" W  View metadata report for BODC series reference number 410508
4105211990-09-17 07:53 59° 16' 52" N  1° 55' 50" W  View metadata report for BODC series reference number 410521
4105331990-09-17 08:55 59° 16' 52" N  2° 4' 54" W  View metadata report for BODC series reference number 410533
4105451990-09-17 09:51 59° 16' 51" N  2° 14' 2" W  View metadata report for BODC series reference number 410545
4105571990-09-17 16:25 58° 59' 55" N  3° 29' 53" W  View metadata report for BODC series reference number 410557
4105691990-09-17 17:46 59° 5' 20" N  3° 45' 2" W  View metadata report for BODC series reference number 410569
4105701990-09-17 19:34 59° 10' 0" N  3° 59' 50" W  View metadata report for BODC series reference number 410570
4105821990-09-17 20:54 59° 15' 0" N  4° 14' 48" W  View metadata report for BODC series reference number 410582
4105941990-09-17 22:09 59° 19' 58" N  4° 29' 58" W  View metadata report for BODC series reference number 410594
4106011990-09-17 23:13 59° 24' 54" N  4° 44' 46" W  View metadata report for BODC series reference number 410601
4106131990-09-18 00:19 59° 29' 53" N  4° 59' 42" W  View metadata report for BODC series reference number 410613
4106251990-09-18 01:46 59° 29' 57" N  4° 40' 29" W  View metadata report for BODC series reference number 410625
4106371990-09-18 02:58 59° 30' 1" N  4° 20' 23" W  View metadata report for BODC series reference number 410637
4106491990-09-18 04:12 59° 28' 53" N  3° 59' 59" W  View metadata report for BODC series reference number 410649
4106501990-09-18 05:22 59° 30' 0" N  3° 39' 49" W  View metadata report for BODC series reference number 410650
4106621990-09-18 06:32 59° 30' 2" N  3° 19' 46" W  View metadata report for BODC series reference number 410662
4106741990-09-18 07:33 59° 30' 4" N  2° 59' 43" W  View metadata report for BODC series reference number 410674
4106861990-09-18 08:51 59° 29' 57" N  2° 29' 21" W  View metadata report for BODC series reference number 410686
4106981990-09-18 10:18 59° 29' 53" N  1° 59' 47" W  View metadata report for BODC series reference number 410698
4107051990-09-18 11:50 59° 29' 42" N  1° 30' 14" W  View metadata report for BODC series reference number 410705
4107171990-09-18 12:42 59° 29' 55" N  1° 15' 8" W  View metadata report for BODC series reference number 410717
4107291990-09-18 13:37 59° 29' 57" N  1° 0' 13" W  View metadata report for BODC series reference number 410729
4107301990-09-18 14:47 59° 30' 1" N  0° 40' 16" W  View metadata report for BODC series reference number 410730
4107421990-09-18 15:48 59° 30' 1" N  0° 19' 53" W  View metadata report for BODC series reference number 410742
4107541990-09-18 16:53 59° 30' 1" N  0° 0' 9" W  View metadata report for BODC series reference number 410754
4107661990-09-18 20:03 60° 0' 4" N  0° 0' 4" W  View metadata report for BODC series reference number 410766
4107781990-09-22 04:13 60° 25' 1" N  0° 40' 1" W  View metadata report for BODC series reference number 410778
4107911990-09-22 05:02 60° 24' 56" N  0° 29' 53" W  View metadata report for BODC series reference number 410791
4108091990-09-22 05:48 60° 25' 1" N  0° 20' 4" W  View metadata report for BODC series reference number 410809
4108101990-09-22 07:00 60° 25' 2" N  0° 0' 7" W  View metadata report for BODC series reference number 410810
4108221990-09-22 08:25 60° 25' 1" N  0° 19' 59" E  View metadata report for BODC series reference number 410822
4108341990-09-22 09:34 60° 25' 1" N  0° 39' 59" E  View metadata report for BODC series reference number 410834
4108461990-09-22 10:39 60° 24' 59" N  1° 0' 0" E  View metadata report for BODC series reference number 410846
4108581990-09-22 11:46 60° 25' 1" N  1° 19' 51" E  View metadata report for BODC series reference number 410858
4108711990-09-22 12:51 60° 25' 3" N  1° 39' 46" E  View metadata report for BODC series reference number 410871
4108831990-09-22 14:00 60° 25' 0" N  1° 59' 45" E  View metadata report for BODC series reference number 410883
4108951990-09-22 15:03 60° 24' 55" N  2° 19' 45" E  View metadata report for BODC series reference number 410895
4109021990-09-22 17:03 60° 25' 4" N  2° 39' 59" E  View metadata report for BODC series reference number 410902
4109141990-09-22 19:43 60° 49' 59" N  2° 53' 55" E  View metadata report for BODC series reference number 410914
4109261990-09-22 20:51 60° 50' 4" N  2° 40' 9" E  View metadata report for BODC series reference number 410926
4109381990-09-22 21:53 60° 50' 3" N  2° 20' 12" E  View metadata report for BODC series reference number 410938
4109511990-09-22 22:57 60° 50' 1" N  2° 0' 1" E  View metadata report for BODC series reference number 410951
4109631990-09-23 00:03 60° 49' 57" N  1° 39' 35" E  View metadata report for BODC series reference number 410963
4109751990-09-23 01:16 60° 49' 47" N  1° 20' 6" E  View metadata report for BODC series reference number 410975
4109871990-09-23 02:36 60° 49' 54" N  1° 0' 19" E  View metadata report for BODC series reference number 410987
4109991990-09-23 04:16 60° 49' 54" N  0° 39' 58" E  View metadata report for BODC series reference number 410999
4110021990-09-23 05:21 60° 50' 3" N  0° 20' 2" E  View metadata report for BODC series reference number 411002
4110141990-09-23 06:24 60° 50' 6" N  0° 0' 7" W  View metadata report for BODC series reference number 411014
4110261990-09-23 07:48 60° 50' 2" N  0° 20' 2" W  View metadata report for BODC series reference number 411026
4110381990-09-23 08:29 60° 50' 5" N  0° 29' 58" W  View metadata report for BODC series reference number 411038
4110511990-09-23 09:35 60° 50' 0" N  0° 39' 55" W  View metadata report for BODC series reference number 411051
4110631990-09-23 10:02 60° 49' 50" N  0° 43' 22" W  View metadata report for BODC series reference number 411063
4110751990-09-23 11:23 60° 57' 0" N  1° 1' 39" W  View metadata report for BODC series reference number 411075
4110871990-09-23 13:21 61° 1' 2" N  1° 35' 41" W  View metadata report for BODC series reference number 411087
4110991990-09-23 15:21 61° 8' 7" N  2° 9' 41" W  View metadata report for BODC series reference number 411099
4111061990-09-27 07:12 60° 40' 3" N  2° 59' 51" W  View metadata report for BODC series reference number 411106
4111181990-09-27 08:38 60° 35' 4" N  2° 44' 46" W  View metadata report for BODC series reference number 411118
4111311990-09-27 09:46 60° 30' 4" N  2° 29' 44" W  View metadata report for BODC series reference number 411131
4111431990-09-27 11:24 60° 25' 7" N  2° 15' 4" W  View metadata report for BODC series reference number 411143
4111551990-09-27 12:29 60° 20' 11" N  1° 59' 57" W  View metadata report for BODC series reference number 411155
4111671990-09-27 17:46 60° 49' 49" N  0° 29' 39" W  View metadata report for BODC series reference number 411167
4111791990-09-27 18:56 60° 59' 59" N  0° 29' 41" W  View metadata report for BODC series reference number 411179
4111801990-09-27 20:24 61° 9' 51" N  0° 30' 0" W  View metadata report for BODC series reference number 411180
4111921990-09-27 21:39 61° 19' 58" N  0° 29' 58" W  View metadata report for BODC series reference number 411192
4112111990-09-27 22:53 61° 29' 57" N  0° 30' 19" W  View metadata report for BODC series reference number 411211
4112231990-09-28 00:05 61° 39' 48" N  0° 29' 50" W  View metadata report for BODC series reference number 411223
4112351990-09-28 21:41 61° 50' 3" N  0° 30' 7" W  View metadata report for BODC series reference number 411235
4112471990-09-28 22:56 61° 59' 58" N  0° 29' 45" W  View metadata report for BODC series reference number 411247
4112591990-09-29 05:18 62° 20' 8" N  1° 59' 52" E  View metadata report for BODC series reference number 411259
4112601990-09-29 06:38 62° 9' 56" N  1° 59' 51" E  View metadata report for BODC series reference number 411260
4112721990-09-29 07:59 61° 59' 35" N  1° 59' 55" E  View metadata report for BODC series reference number 411272
4112841990-09-29 09:17 61° 49' 59" N  2° 0' 1" E  View metadata report for BODC series reference number 411284
4112961990-09-29 10:34 61° 40' 0" N  1° 59' 55" E  View metadata report for BODC series reference number 411296
4113031990-09-29 11:58 61° 30' 6" N  2° 0' 9" E  View metadata report for BODC series reference number 411303
4113151990-09-29 13:13 61° 20' 10" N  1° 59' 53" E  View metadata report for BODC series reference number 411315
4113271990-09-29 14:23 61° 10' 12" N  2° 0' 0" E  View metadata report for BODC series reference number 411327
4113391990-09-29 15:31 60° 59' 59" N  1° 59' 55" E  View metadata report for BODC series reference number 411339
4113401990-09-29 16:36 60° 49' 57" N  2° 0' 3" E  View metadata report for BODC series reference number 411340
4113521990-09-29 21:18 60° 0' 0" N  1° 59' 53" E  View metadata report for BODC series reference number 411352
4113641990-09-29 22:47 59° 59' 48" N  1° 29' 57" E  View metadata report for BODC series reference number 411364
4113761990-09-30 00:16 59° 59' 55" N  1° 0' 6" E  View metadata report for BODC series reference number 411376
4113881990-09-30 03:43 60° 0' 0" N  0° 29' 55" E  View metadata report for BODC series reference number 411388
4114071990-09-30 05:11 60° 0' 1" N  0° 0' 1" W  View metadata report for BODC series reference number 411407
4114191990-09-30 06:41 59° 59' 57" N  0° 30' 6" W  View metadata report for BODC series reference number 411419
4114201990-09-30 08:07 59° 59' 55" N  1° 0' 7" W  View metadata report for BODC series reference number 411420
4114321990-10-01 19:47 59° 20' 2" N  3° 34' 31" W  View metadata report for BODC series reference number 411432
4114441990-10-01 20:29 59° 19' 55" N  3° 25' 54" W  View metadata report for BODC series reference number 411444
4114561990-10-01 21:03 59° 20' 1" N  3° 17' 53" W  View metadata report for BODC series reference number 411456
4114681990-10-01 21:36 59° 20' 1" N  3° 10' 1" W  View metadata report for BODC series reference number 411468
4114811990-10-04 18:23 57° 4' 22" N  1° 44' 30" W  View metadata report for BODC series reference number 411481
4114931990-10-04 18:41 57° 3' 42" N  1° 46' 19" W  View metadata report for BODC series reference number 411493
4115001990-10-04 19:11 57° 3' 48" N  1° 46' 6" W  View metadata report for BODC series reference number 411500
4115121990-10-04 20:34 57° 5' 27" N  1° 25' 0" W  View metadata report for BODC series reference number 411512
4115241990-10-04 20:43 57° 5' 30" N  1° 24' 49" W  View metadata report for BODC series reference number 411524
4115361990-10-04 22:02 57° 5' 27" N  1° 6' 46" W  View metadata report for BODC series reference number 411536
4115481990-10-04 22:07 57° 5' 25" N  1° 6' 42" W  View metadata report for BODC series reference number 411548